createdAt,value
2016-05-17T00:00:28.781Z,20.17
2016-05-17T00:01:28.612Z,20.16
2016-05-17T00:02:28.740Z,20.17
2016-05-17T00:03:28.742Z,20.19
2016-05-17T00:04:28.730Z,20.23
2016-05-17T00:05:28.560Z,20.13
2016-05-17T00:06:29.563Z,20.19
2016-05-17T00:07:28.534Z,20.17
2016-05-17T00:08:28.677Z,20.12
2016-05-17T00:09:28.664Z,20.19
2016-05-17T00:10:28.652Z,20.1
2016-05-17T00:11:28.483Z,20.12
2016-05-17T00:12:28.470Z,20.17
2016-05-17T00:13:28.613Z,20.12
2016-05-17T00:14:28.694Z,20.17
2016-05-17T00:15:29.087Z,20.07
2016-05-17T00:16:28.574Z,20.12
2016-05-17T00:17:28.593Z,20.19
2016-05-17T00:18:28.548Z,20.12
2016-05-17T00:19:28.380Z,20.16
2016-05-17T00:20:28.523Z,20.12
2016-05-17T00:21:29.244Z,20.08
2016-05-17T00:22:28.700Z,20.16
2016-05-17T00:23:28.484Z,20.1
2016-05-17T00:24:28.455Z,20.07
2016-05-17T00:25:28.442Z,20.05
2016-05-17T00:26:28.304Z,20.12
2016-05-17T00:27:28.432Z,20.1
2016-05-17T00:28:28.420Z,20.13
2016-05-17T00:29:28.406Z,20.08
2016-05-17T00:30:28.706Z,20.13
2016-05-17T00:31:28.380Z,20.13
2016-05-17T00:32:28.368Z,20.17
2016-05-17T00:33:28.339Z,20.13
2016-05-17T00:34:28.169Z,20.12
2016-05-17T00:35:28.328Z,20.17
2016-05-17T00:36:28.206Z,20.13
2016-05-17T00:37:28.303Z,20.12
2016-05-17T00:38:28.525Z,20.15
2016-05-17T00:39:28.120Z,20.16
2016-05-17T00:40:28.108Z,20.1
2016-05-17T00:41:28.079Z,20.1
2016-05-17T00:42:28.238Z,20.12
2016-05-17T00:43:28.210Z,20.12
2016-05-17T00:44:28.041Z,20.05
2016-05-17T00:45:28.184Z,20.08
2016-05-17T00:46:28.718Z,20.13
2016-05-17T00:47:28.174Z,20.13
2016-05-17T00:48:28.145Z,20.1
2016-05-17T00:49:28.132Z,20.07
2016-05-17T00:50:28.118Z,20.2
2016-05-17T00:51:28.262Z,20.1
2016-05-17T00:52:28.093Z,20.13
2016-05-17T00:53:28.080Z,20.05
2016-05-17T00:54:28.723Z,20.1
2016-05-17T00:55:28.054Z,20.19
2016-05-17T00:56:28.041Z,20.23
2016-05-17T00:57:28.043Z,20.13
2016-05-17T00:58:28.015Z,20.08
2016-05-17T00:59:27.862Z,20.05
2016-05-17T01:00:27.834Z,20.04
2016-05-17T01:01:27.977Z,20.08
2016-05-17T01:02:28.011Z,20.19
2016-05-17T01:03:27.810Z,20.1
2016-05-17T01:04:27.953Z,20.15
2016-05-17T01:05:27.925Z,20.07
2016-05-17T01:06:27.942Z,20.05
2016-05-17T01:07:27.900Z,20.1
2016-05-17T01:08:27.730Z,20.08
2016-05-17T01:09:27.873Z,20.1
2016-05-17T01:10:27.861Z,20.15
2016-05-17T01:11:27.863Z,20.17
2016-05-17T01:12:27.834Z,20.1
2016-05-17T01:13:27.666Z,20.12
2016-05-17T01:14:27.808Z,20.15
2016-05-17T01:15:27.639Z,20.08
2016-05-17T01:16:27.783Z,20.16
2016-05-17T01:17:27.770Z,20.08
2016-05-17T01:18:27.850Z,20.1
2016-05-17T01:19:27.744Z,20.12
2016-05-17T01:20:27.731Z,20.15
2016-05-17T01:21:27.843Z,20.1
2016-05-17T01:22:27.705Z,20.12
2016-05-17T01:23:27.707Z,20.04
2016-05-17T01:24:27.366Z,20.08
2016-05-17T01:25:27.666Z,20.13
2016-05-17T01:26:27.857Z,20.1
2016-05-17T01:27:27.624Z,20.05
2016-05-17T01:28:27.627Z,20.08
2016-05-17T01:29:27.614Z,20.1
2016-05-17T01:30:27.601Z,20.13
2016-05-17T01:31:27.589Z,20.05
2016-05-17T01:32:27.575Z,20.17
2016-05-17T01:33:27.563Z,20.12
2016-05-17T01:34:27.893Z,20.07
2016-05-17T01:35:27.537Z,20.13
2016-05-17T01:36:27.384Z,19.95
2016-05-17T01:37:27.511Z,20.12
2016-05-17T01:38:27.498Z,20.13
2016-05-17T01:39:27.485Z,19.94
2016-05-17T01:40:27.316Z,20.08
2016-05-17T01:41:27.475Z,19.95
2016-05-17T01:42:27.900Z,20.07
2016-05-17T01:43:27.433Z,20.1
2016-05-17T01:44:27.264Z,20.01
2016-05-17T01:45:27.391Z,20.07
2016-05-17T01:46:27.394Z,20.04
2016-05-17T01:47:27.382Z,19.97
2016-05-17T01:48:27.368Z,20.07
2016-05-17T01:49:27.356Z,19.95
2016-05-17T01:50:27.905Z,19.95
2016-05-17T01:51:27.330Z,20.05
2016-05-17T01:52:27.146Z,20.1
2016-05-17T01:53:27.288Z,20.08
2016-05-17T01:54:27.291Z,20.1
2016-05-17T01:55:27.278Z,20.07
2016-05-17T01:56:27.249Z,20.08
2016-05-17T01:57:27.237Z,19.98
2016-05-17T01:58:27.927Z,20.08
2016-05-17T01:59:27.210Z,20.07
2016-05-17T02:00:27.198Z,20.1
2016-05-17T02:01:27.185Z,20.12
2016-05-17T02:02:27.031Z,20.08
2016-05-17T02:03:27.018Z,20.07
2016-05-17T02:04:27.145Z,20.13
2016-05-17T02:05:27.134Z,19.94
2016-05-17T02:06:27.886Z,19.98
2016-05-17T02:07:27.107Z,20
2016-05-17T02:08:27.095Z,20.1
2016-05-17T02:09:27.081Z,20.1
2016-05-17T02:10:26.912Z,20.1
2016-05-17T02:11:27.087Z,20
2016-05-17T02:12:27.042Z,19.95
2016-05-17T02:13:26.889Z,20.02
2016-05-17T02:14:27.220Z,19.95
2016-05-17T02:15:27.003Z,20
2016-05-17T02:16:27.006Z,19.97
2016-05-17T02:17:26.978Z,20
2016-05-17T02:18:26.980Z,19.94
2016-05-17T02:19:26.953Z,20.13
2016-05-17T02:20:26.938Z,20.08
2016-05-17T02:21:26.973Z,19.95
2016-05-17T02:22:27.210Z,20.08
2016-05-17T02:23:26.744Z,19.98
2016-05-17T02:24:26.903Z,20.1
2016-05-17T02:25:26.890Z,19.98
2016-05-17T02:26:26.862Z,20
2016-05-17T02:27:26.865Z,20.08
2016-05-17T02:28:26.820Z,19.97
2016-05-17T02:29:26.823Z,19.97
2016-05-17T02:30:27.216Z,20.1
2016-05-17T02:31:26.813Z,19.92
2016-05-17T02:32:26.628Z,20
2016-05-17T02:33:26.771Z,19.97
2016-05-17T02:34:26.601Z,19.94
2016-05-17T02:35:26.636Z,19.95
2016-05-17T02:36:27.013Z,20.08
2016-05-17T02:37:26.829Z,20.1
2016-05-17T02:38:27.222Z,20.01
2016-05-17T02:39:26.756Z,19.98
2016-05-17T02:40:26.525Z,19.97
2016-05-17T02:41:26.652Z,20.05
2016-05-17T02:42:26.342Z,19.94
2016-05-17T02:43:26.641Z,20.04
2016-05-17T02:44:26.628Z,19.94
2016-05-17T02:45:26.850Z,20.01
2016-05-17T02:46:26.603Z,20
2016-05-17T02:47:26.575Z,20.05
2016-05-17T02:48:26.577Z,19.94
2016-05-17T02:49:26.563Z,19.9
2016-05-17T02:50:26.551Z,19.97
2016-05-17T02:51:26.726Z,19.97
2016-05-17T02:52:26.510Z,20
2016-05-17T02:53:26.700Z,19.94
2016-05-17T02:54:26.499Z,19.92
2016-05-17T02:55:26.502Z,19.94
2016-05-17T02:56:26.474Z,19.92
2016-05-17T02:57:26.460Z,19.97
2016-05-17T02:58:26.448Z,19.92
2016-05-17T02:59:26.435Z,19.98
2016-05-17T03:00:26.407Z,19.95
2016-05-17T03:01:26.846Z,19.94
2016-05-17T03:02:26.240Z,20.05
2016-05-17T03:03:26.382Z,19.94
2016-05-17T03:04:26.198Z,19.9
2016-05-17T03:05:26.357Z,19.95
2016-05-17T03:06:26.719Z,19.92
2016-05-17T03:07:26.315Z,19.92
2016-05-17T03:08:26.303Z,19.95
2016-05-17T03:09:26.914Z,19.94
2016-05-17T03:10:26.120Z,19.94
2016-05-17T03:11:26.264Z,19.94
2016-05-17T03:12:26.267Z,19.95
2016-05-17T03:13:26.238Z,19.98
2016-05-17T03:14:26.241Z,19.95
2016-05-17T03:15:26.071Z,19.97
2016-05-17T03:16:26.059Z,19.92
2016-05-17T03:17:26.842Z,19.95
2016-05-17T03:18:26.173Z,19.9
2016-05-17T03:19:26.161Z,19.94
2016-05-17T03:20:26.147Z,19.94
2016-05-17T03:21:26.305Z,20
2016-05-17T03:22:25.980Z,20
2016-05-17T03:23:26.124Z,19.95
2016-05-17T03:24:26.096Z,19.94
2016-05-17T03:25:25.988Z,19.95
2016-05-17T03:26:26.116Z,19.92
2016-05-17T03:27:26.072Z,20.05
2016-05-17T03:28:26.107Z,19.9
2016-05-17T03:29:26.187Z,19.95
2016-05-17T03:30:26.065Z,19.94
2016-05-17T03:31:26.020Z,19.97
2016-05-17T03:32:25.836Z,20.01
2016-05-17T03:33:26.199Z,19.97
2016-05-17T03:34:25.966Z,19.97
2016-05-17T03:35:25.954Z,19.97
2016-05-17T03:36:25.800Z,19.95
2016-05-17T03:37:25.943Z,19.97
2016-05-17T03:38:25.758Z,19.9
2016-05-17T03:39:25.902Z,19.95
2016-05-17T03:40:25.889Z,20.01
2016-05-17T03:41:26.173Z,19.97
2016-05-17T03:42:25.706Z,19.94
2016-05-17T03:43:25.850Z,19.95
2016-05-17T03:44:25.837Z,19.94
2016-05-17T03:45:25.824Z,20.01
2016-05-17T03:46:25.811Z,19.95
2016-05-17T03:47:25.641Z,20.01
2016-05-17T03:48:25.770Z,19.98
2016-05-17T03:49:26.163Z,19.98
2016-05-17T03:50:25.602Z,20.01
2016-05-17T03:51:25.747Z,19.94
2016-05-17T03:52:25.436Z,19.92
2016-05-17T03:53:25.721Z,19.94
2016-05-17T03:54:25.707Z,19.97
2016-05-17T03:55:25.694Z,19.92
2016-05-17T03:56:25.838Z,19.89
2016-05-17T03:57:25.653Z,19.89
2016-05-17T03:58:25.499Z,19.98
2016-05-17T03:59:25.643Z,19.87
2016-05-17T04:00:25.615Z,20
2016-05-17T04:01:25.617Z,19.97
2016-05-17T04:02:25.604Z,19.86
2016-05-17T04:03:25.590Z,19.92
2016-05-17T04:04:25.876Z,19.9
2016-05-17T04:05:25.550Z,19.89
2016-05-17T04:06:25.552Z,19.9
2016-05-17T04:07:25.837Z,19.89
2016-05-17T04:08:25.526Z,19.92
2016-05-17T04:09:25.514Z,19.97
2016-05-17T04:10:25.516Z,19.85
2016-05-17T04:11:25.487Z,19.98
2016-05-17T04:12:25.818Z,19.9
2016-05-17T04:13:25.462Z,19.87
2016-05-17T04:14:25.448Z,19.87
2016-05-17T04:15:25.420Z,19.9
2016-05-17T04:16:25.423Z,19.86
2016-05-17T04:17:25.410Z,19.85
2016-05-17T04:18:25.381Z,19.9
2016-05-17T04:19:25.383Z,19.94
2016-05-17T04:20:25.872Z,19.94
2016-05-17T04:21:25.343Z,19.9
2016-05-17T04:22:25.330Z,19.92
2016-05-17T04:23:25.317Z,19.83
2016-05-17T04:24:25.304Z,19.94
2016-05-17T04:25:25.291Z,19.94
2016-05-17T04:26:25.293Z,19.94
2016-05-17T04:27:25.265Z,19.94
2016-05-17T04:28:25.799Z,19.9
2016-05-17T04:29:25.239Z,19.94
2016-05-17T04:30:25.070Z,19.89
2016-05-17T04:31:25.213Z,19.89
2016-05-17T04:32:25.201Z,19.9
2016-05-17T04:33:25.203Z,19.95
2016-05-17T04:34:25.174Z,19.94
2016-05-17T04:35:25.036Z,19.87
2016-05-17T04:36:25.883Z,19.85
2016-05-17T04:37:25.136Z,19.92
2016-05-17T04:38:25.123Z,19.9
2016-05-17T04:39:25.110Z,19.89
2016-05-17T04:40:25.097Z,19.85
2016-05-17T04:41:25.068Z,19.83
2016-05-17T04:42:25.086Z,19.87
2016-05-17T04:43:25.058Z,19.85
2016-05-17T04:44:25.139Z,19.86
2016-05-17T04:45:25.032Z,19.8
2016-05-17T04:46:25.004Z,19.83
2016-05-17T04:47:25.006Z,19.85
2016-05-17T04:48:24.978Z,19.86
2016-05-17T04:49:24.964Z,19.89
2016-05-17T04:50:24.952Z,19.86
2016-05-17T04:51:24.626Z,19.79
2016-05-17T04:52:24.833Z,19.86
2016-05-17T04:53:24.914Z,19.87
2016-05-17T04:54:24.916Z,19.85
2016-05-17T04:55:24.888Z,19.87
2016-05-17T04:56:24.718Z,19.85
2016-05-17T04:57:24.861Z,19.8
2016-05-17T04:58:24.692Z,19.82
2016-05-17T04:59:24.835Z,19.85
2016-05-17T05:00:25.135Z,19.83
2016-05-17T05:01:24.825Z,19.82
2016-05-17T05:02:24.813Z,19.82
2016-05-17T05:03:24.799Z,19.79
2016-05-17T05:04:24.615Z,19.86
2016-05-17T05:05:24.617Z,19.82
2016-05-17T05:06:24.588Z,19.83
2016-05-17T05:07:24.590Z,19.85
2016-05-17T05:08:25.875Z,19.85
2016-05-17T05:09:24.728Z,19.86
2016-05-17T05:10:24.617Z,19.87
2016-05-17T05:11:24.788Z,19.86
2016-05-17T05:12:24.817Z,19.87
2016-05-17T05:13:24.847Z,19.86
2016-05-17T05:14:24.864Z,19.86
2016-05-17T05:15:24.866Z,19.83
2016-05-17T05:16:24.869Z,19.82
2016-05-17T05:17:24.871Z,19.86
2016-05-17T05:18:24.734Z,19.86
2016-05-17T05:19:24.715Z,19.86
2016-05-17T05:20:24.864Z,19.83
2016-05-17T05:21:24.856Z,19.8
2016-05-17T05:22:26.302Z,19.85
2016-05-17T05:23:24.684Z,19.82
2016-05-17T05:24:24.675Z,19.79
2016-05-17T05:25:24.821Z,19.83
2016-05-17T05:26:24.638Z,19.83
2016-05-17T05:27:24.799Z,19.82
2016-05-17T05:28:24.804Z,19.82
2016-05-17T05:29:24.776Z,19.86
2016-05-17T05:30:24.748Z,19.8
2016-05-17T05:31:24.751Z,19.83
2016-05-17T05:32:24.583Z,19.86
2016-05-17T05:33:24.712Z,19.89
2016-05-17T05:34:24.699Z,19.89
2016-05-17T05:35:24.703Z,19.83
2016-05-17T05:36:24.690Z,19.87
2016-05-17T05:37:25.146Z,19.86
2016-05-17T05:38:24.665Z,19.85
2016-05-17T05:39:24.652Z,19.9
2016-05-17T05:40:24.623Z,19.87
2016-05-17T05:41:24.454Z,19.82
2016-05-17T05:42:24.598Z,19.78
2016-05-17T05:43:24.585Z,19.89
2016-05-17T05:44:24.571Z,19.79
2016-05-17T05:45:24.559Z,19.83
2016-05-17T05:46:24.390Z,19.85
2016-05-17T05:47:24.376Z,19.8
2016-05-17T05:48:24.521Z,19.8
2016-05-17T05:49:24.522Z,19.83
2016-05-17T05:50:24.337Z,19.85
2016-05-17T05:51:24.481Z,19.85
2016-05-17T05:52:24.515Z,19.86
2016-05-17T05:53:24.456Z,19.8
2016-05-17T05:54:24.443Z,19.85
2016-05-17T05:55:24.429Z,19.86
2016-05-17T05:56:24.417Z,19.85
2016-05-17T05:57:24.498Z,19.76
2016-05-17T05:58:24.406Z,19.79
2016-05-17T05:59:24.378Z,19.83
2016-05-17T06:00:24.365Z,19.79
2016-05-17T06:01:24.352Z,19.78
2016-05-17T06:02:24.339Z,19.86
2016-05-17T06:03:24.311Z,19.79
2016-05-17T06:04:24.157Z,19.82
2016-05-17T06:05:24.535Z,19.79
2016-05-17T06:06:24.115Z,19.79
2016-05-17T06:07:24.133Z,19.78
2016-05-17T06:08:24.246Z,19.79
2016-05-17T06:09:24.092Z,19.82
2016-05-17T06:10:24.079Z,19.78
2016-05-17T06:11:24.207Z,19.76
2016-05-17T06:12:24.193Z,19.78
2016-05-17T06:13:24.540Z,19.8
2016-05-17T06:14:24.168Z,19.68
2016-05-17T06:15:24.155Z,19.76
2016-05-17T06:16:24.173Z,19.85
2016-05-17T06:17:24.145Z,19.82
2016-05-17T06:18:24.116Z,19.82
2016-05-17T06:19:23.947Z,19.76
2016-05-17T06:20:24.091Z,19.79
2016-05-17T06:21:24.531Z,19.79
2016-05-17T06:22:24.470Z,19.72
2016-05-17T06:23:24.051Z,19.79
2016-05-17T06:24:24.086Z,19.79
2016-05-17T06:25:24.026Z,19.75
2016-05-17T06:26:24.013Z,19.72
2016-05-17T06:27:24.001Z,19.79
2016-05-17T06:28:23.986Z,19.72
2016-05-17T06:29:24.584Z,19.78
2016-05-17T06:30:23.961Z,19.71
2016-05-17T06:31:23.792Z,19.75
2016-05-17T06:32:23.779Z,19.71
2016-05-17T06:33:23.923Z,19.72
2016-05-17T06:34:23.909Z,19.72
2016-05-17T06:35:23.741Z,19.71
2016-05-17T06:36:23.884Z,19.75
2016-05-17T06:37:24.636Z,19.8
2016-05-17T06:38:23.858Z,19.72
2016-05-17T06:39:23.844Z,19.79
2016-05-17T06:40:23.675Z,19.75
2016-05-17T06:41:23.663Z,19.75
2016-05-17T06:42:23.806Z,19.75
2016-05-17T06:43:23.637Z,19.75
2016-05-17T06:44:23.780Z,19.82
2016-05-17T06:45:23.814Z,19.8
2016-05-17T06:46:23.598Z,19.75
2016-05-17T06:47:23.569Z,19.75
2016-05-17T06:48:23.728Z,19.75
2016-05-17T06:49:23.559Z,19.68
2016-05-17T06:50:23.702Z,19.76
2016-05-17T06:51:23.830Z,19.75
2016-05-17T06:52:23.786Z,19.78
2016-05-17T06:53:23.835Z,19.76
2016-05-17T06:54:23.651Z,19.8
2016-05-17T06:55:23.622Z,19.79
2016-05-17T06:56:23.453Z,19.87
2016-05-17T06:57:23.595Z,19.76
2016-05-17T06:58:23.584Z,19.83
2016-05-17T06:59:23.570Z,19.82
2016-05-17T07:00:23.558Z,19.82
2016-05-17T07:01:23.841Z,19.83
2016-05-17T07:02:23.531Z,19.82
2016-05-17T07:03:23.519Z,19.87
2016-05-17T07:04:23.380Z,19.82
2016-05-17T07:05:23.492Z,19.85
2016-05-17T07:06:23.324Z,19.83
2016-05-17T07:07:23.483Z,19.86
2016-05-17T07:08:23.454Z,19.92
2016-05-17T07:09:23.847Z,19.95
2016-05-17T07:10:23.443Z,19.95
2016-05-17T07:11:23.415Z,19.95
2016-05-17T07:12:23.402Z,19.92
2016-05-17T07:13:23.421Z,19.92
2016-05-17T07:14:23.220Z,19.95
2016-05-17T07:15:23.379Z,20.07
2016-05-17T07:16:23.522Z,20.08
2016-05-17T07:17:23.338Z,20.07
2016-05-17T07:18:23.324Z,20
2016-05-17T07:19:23.155Z,19.58
2016-05-17T07:20:23.298Z,19.12
2016-05-17T07:21:23.270Z,18.69
2016-05-17T07:22:23.960Z,18.02
2016-05-17T07:23:23.244Z,17.99
2016-05-17T07:24:23.513Z,18.35
2016-05-17T07:25:23.078Z,18.75
2016-05-17T07:26:23.065Z,19.09
2016-05-17T07:27:22.896Z,19.28
2016-05-17T07:28:23.179Z,19.49
2016-05-17T07:29:23.026Z,19.57
2016-05-17T07:30:23.153Z,19.72
2016-05-17T07:31:23.000Z,19.71
2016-05-17T07:32:23.550Z,19.72
2016-05-17T07:33:23.115Z,19.7
2016-05-17T07:34:23.117Z,19.78
2016-05-17T07:35:23.105Z,19.76
2016-05-17T07:36:23.092Z,19.87
2016-05-17T07:37:23.078Z,19.8
2016-05-17T07:38:23.050Z,19.86
2016-05-17T07:39:23.038Z,19.86
2016-05-17T07:40:23.524Z,19.87
2016-05-17T07:41:22.855Z,19.89
2016-05-17T07:42:22.999Z,19.98
2016-05-17T07:43:22.985Z,19.94
2016-05-17T07:44:22.816Z,20
2016-05-17T07:45:22.959Z,20
2016-05-17T07:46:22.791Z,20
2016-05-17T07:47:22.638Z,19.92
2016-05-17T07:48:23.515Z,19.95
2016-05-17T07:49:22.893Z,19.92
2016-05-17T07:50:22.895Z,20.01
2016-05-17T07:51:22.882Z,19.9
2016-05-17T07:52:22.963Z,19.97
2016-05-17T07:53:22.856Z,20.01
2016-05-17T07:54:22.843Z,19.94
2016-05-17T07:55:22.830Z,19.94
2016-05-17T07:56:23.505Z,19.98
2016-05-17T07:57:22.648Z,19.92
2016-05-17T07:58:22.776Z,19.92
2016-05-17T07:59:22.763Z,19.98
2016-05-17T08:00:22.750Z,19.97
2016-05-17T08:01:22.753Z,20.08
2016-05-17T08:02:22.740Z,20.12
2016-05-17T08:03:22.555Z,20.13
2016-05-17T08:04:22.808Z,20.02
2016-05-17T08:05:22.685Z,20.08
2016-05-17T08:06:22.673Z,20.1
2016-05-17T08:07:22.659Z,20.13
2016-05-17T08:08:22.661Z,20.1
2016-05-17T08:09:22.634Z,20.12
2016-05-17T08:10:22.636Z,20.1
2016-05-17T08:11:22.467Z,20.1
2016-05-17T08:12:22.798Z,20.05
2016-05-17T08:13:22.597Z,20.19
2016-05-17T08:14:22.569Z,20.19
2016-05-17T08:15:22.555Z,20.16
2016-05-17T08:16:22.387Z,20.15
2016-05-17T08:17:22.530Z,20.15
2016-05-17T08:18:22.360Z,20.08
2016-05-17T08:19:22.363Z,19.25
2016-05-17T08:20:22.788Z,18.89
2016-05-17T08:21:22.478Z,18.94
2016-05-17T08:22:22.997Z,19.1
2016-05-17T08:23:22.296Z,19.34
2016-05-17T08:24:22.284Z,19.58
2016-05-17T08:25:22.254Z,19.68
2016-05-17T08:26:22.414Z,19.76
2016-05-17T08:27:22.495Z,19.79
2016-05-17T08:28:22.622Z,19.79
2016-05-17T08:29:22.359Z,19.68
2016-05-17T08:30:22.346Z,19.61
2016-05-17T08:31:22.193Z,19.6
2016-05-17T08:32:22.336Z,19.82
2016-05-17T08:33:22.026Z,19.94
2016-05-17T08:34:22.326Z,20
2016-05-17T08:35:22.657Z,20.08
2016-05-17T08:36:22.300Z,20.05
2016-05-17T08:37:22.272Z,20.07
2016-05-17T08:38:22.259Z,20.17
2016-05-17T08:39:22.261Z,20.17
2016-05-17T08:40:22.233Z,20.17
2016-05-17T08:41:22.064Z,20.19
2016-05-17T08:42:22.066Z,20.2
2016-05-17T08:43:22.710Z,20.22
2016-05-17T08:44:22.165Z,20.3
2016-05-17T08:45:22.168Z,20.3
2016-05-17T08:46:21.996Z,20.26
2016-05-17T08:47:22.139Z,20.26
2016-05-17T08:48:21.986Z,20.31
2016-05-17T08:49:22.129Z,20.3
2016-05-17T08:50:22.147Z,20.33
2016-05-17T08:51:22.309Z,20.37
2016-05-17T08:52:22.043Z,20.38
2016-05-17T08:53:22.046Z,20.37
2016-05-17T08:54:22.033Z,20.38
2016-05-17T08:55:22.036Z,20.33
2016-05-17T08:56:22.007Z,20.4
2016-05-17T08:57:22.010Z,20.31
2016-05-17T08:58:21.982Z,20.33
2016-05-17T08:59:22.468Z,20.33
2016-05-17T09:00:21.956Z,20.35
2016-05-17T09:01:21.802Z,20.33
2016-05-17T09:02:21.929Z,20.34
2016-05-17T09:03:21.917Z,20.37
2016-05-17T09:04:21.919Z,20.35
2016-05-17T09:05:21.875Z,20.38
2016-05-17T09:06:21.862Z,20.35
2016-05-17T09:07:22.302Z,20.35
2016-05-17T09:08:21.852Z,20.38
2016-05-17T09:09:21.839Z,20.46
2016-05-17T09:10:21.686Z,20.34
2016-05-17T09:11:21.798Z,20.34
2016-05-17T09:12:21.800Z,20.31
2016-05-17T09:13:36.383Z,20.33
2016-05-17T09:14:21.774Z,20.35
2016-05-17T09:15:22.465Z,20.26
2016-05-17T09:16:21.749Z,20.3
2016-05-17T09:17:21.736Z,20.25
2016-05-17T09:18:21.707Z,20.33
2016-05-17T09:19:21.694Z,20.27
2016-05-17T09:20:21.681Z,20.34
2016-05-17T09:21:21.684Z,20.31
2016-05-17T09:22:22.218Z,20.22
2016-05-17T09:23:22.502Z,20.23
2016-05-17T09:24:21.661Z,20.23
2016-05-17T09:25:21.632Z,20.26
2016-05-17T09:26:21.604Z,20.23
2016-05-17T09:27:21.607Z,20.27
2016-05-17T09:28:21.593Z,20.33
2016-05-17T09:29:21.581Z,20.3
2016-05-17T09:30:21.552Z,20.27
2016-05-17T09:31:21.804Z,20.27
2016-05-17T09:32:21.526Z,20.33
2016-05-17T09:33:21.513Z,20.26
2016-05-17T09:34:21.501Z,20.33
2016-05-17T09:35:21.190Z,20.31
2016-05-17T09:36:21.475Z,20.35
2016-05-17T09:37:21.759Z,20.31
2016-05-17T09:38:21.448Z,20.34
2016-05-17T09:39:21.748Z,20.31
2016-05-17T09:40:21.423Z,20.31
2016-05-17T09:41:21.409Z,20.37
2016-05-17T09:42:21.397Z,20.34
2016-05-17T09:43:21.400Z,20.33
2016-05-17T09:44:21.214Z,20.35
2016-05-17T09:45:21.358Z,20.34
2016-05-17T09:46:21.219Z,20.4
2016-05-17T09:47:21.800Z,20.34
2016-05-17T09:48:21.163Z,20.38
2016-05-17T09:49:21.321Z,20.38
2016-05-17T09:50:21.137Z,20.34
2016-05-17T09:51:21.280Z,20.34
2016-05-17T09:52:21.283Z,20.35
2016-05-17T09:53:21.099Z,20.4
2016-05-17T09:54:21.242Z,20.35
2016-05-17T09:55:21.228Z,20.33
2016-05-17T09:56:21.216Z,20.34
2016-05-17T09:57:21.203Z,20.35
2016-05-17T09:58:21.205Z,20.38
2016-05-17T09:59:21.162Z,20.4
2016-05-17T10:00:21.148Z,20.41
2016-05-17T10:01:21.151Z,20.35
2016-05-17T10:02:21.138Z,20.5
2016-05-17T10:03:21.125Z,20.46
2016-05-17T10:04:21.112Z,20.54
2016-05-17T10:05:21.084Z,20.48
2016-05-17T10:06:21.086Z,20.46
2016-05-17T10:07:21.339Z,20.5
2016-05-17T10:08:21.061Z,20.5
2016-05-17T10:09:21.048Z,20.53
2016-05-17T10:10:21.019Z,20.5
2016-05-17T10:11:21.006Z,20.54
2016-05-17T10:12:21.008Z,20.48
2016-05-17T10:13:20.996Z,20.56
2016-05-17T10:14:20.811Z,20.58
2016-05-17T10:15:20.955Z,20.66
2016-05-17T10:16:20.942Z,20.64
2016-05-17T10:17:20.928Z,20.71
2016-05-17T10:18:20.931Z,20.66
2016-05-17T10:19:20.919Z,20.68
2016-05-17T10:20:20.921Z,20.71
2016-05-17T10:21:20.877Z,20.61
2016-05-17T10:22:20.770Z,20.75
2016-05-17T10:23:20.851Z,20.72
2016-05-17T10:24:20.838Z,20.68
2016-05-17T10:25:20.668Z,20.75
2016-05-17T10:26:20.828Z,20.76
2016-05-17T10:27:20.799Z,20.83
2016-05-17T10:28:20.785Z,20.85
2016-05-17T10:29:20.774Z,20.83
2016-05-17T10:30:20.760Z,20.88
2016-05-17T10:31:20.762Z,20.79
2016-05-17T10:32:20.735Z,20.78
2016-05-17T10:33:20.737Z,20.71
2016-05-17T10:34:20.552Z,20.78
2016-05-17T10:35:20.712Z,20.61
2016-05-17T10:36:20.807Z,20.73
2016-05-17T10:37:20.669Z,20.63
2016-05-17T10:38:20.657Z,20.68
2016-05-17T10:39:20.675Z,20.66
2016-05-17T10:40:20.631Z,20.68
2016-05-17T10:41:20.618Z,20.68
2016-05-17T10:42:20.606Z,20.66
2016-05-17T10:43:20.592Z,20.69
2016-05-17T10:44:20.783Z,20.73
2016-05-17T10:45:20.411Z,20.79
2016-05-17T10:46:20.397Z,20.75
2016-05-17T10:47:20.384Z,20.71
2016-05-17T10:48:20.372Z,20.75
2016-05-17T10:49:20.514Z,20.75
2016-05-17T10:50:20.502Z,20.66
2016-05-17T10:51:20.505Z,20.68
2016-05-17T10:52:20.836Z,20.66
2016-05-17T10:53:20.463Z,20.69
2016-05-17T10:54:20.450Z,20.66
2016-05-17T10:55:20.437Z,20.72
2016-05-17T10:56:20.268Z,20.66
2016-05-17T10:57:20.411Z,20.72
2016-05-17T10:58:20.241Z,20.61
2016-05-17T10:59:20.385Z,20.71
2016-05-17T11:00:20.826Z,20.72
2016-05-17T11:01:20.360Z,20.75
2016-05-17T11:02:20.362Z,20.73
2016-05-17T11:03:20.193Z,20.81
2016-05-17T11:04:20.007Z,20.79
2016-05-17T11:05:20.167Z,20.75
2016-05-17T11:06:20.295Z,20.85
2016-05-17T11:07:20.828Z,20.88
2016-05-17T11:08:20.112Z,20.85
2016-05-17T11:09:20.271Z,20.9
2016-05-17T11:10:20.243Z,20.87
2016-05-17T11:11:20.073Z,20.79
2016-05-17T11:12:20.061Z,20.81
2016-05-17T11:13:20.203Z,20.76
2016-05-17T11:14:20.034Z,20.87
2016-05-17T11:15:20.022Z,20.83
2016-05-17T11:16:20.102Z,20.87
2016-05-17T11:17:20.167Z,20.81
2016-05-17T11:18:19.999Z,20.81
2016-05-17T11:19:20.111Z,20.61
2016-05-17T11:20:20.114Z,20.26
2016-05-17T11:21:20.101Z,19.89
2016-05-17T11:22:20.337Z,19.61
2016-05-17T11:23:20.074Z,19.16
2016-05-17T11:24:20.141Z,19.17
2016-05-17T11:25:20.033Z,19.38
2016-05-17T11:26:20.036Z,19.58
2016-05-17T11:27:20.024Z,19.65
2016-05-17T11:28:20.010Z,19.8
2016-05-17T11:29:19.982Z,19.97
2016-05-17T11:30:19.984Z,20.1
2016-05-17T11:31:19.971Z,20.2
2016-05-17T11:32:20.099Z,20.16
2016-05-17T11:33:19.946Z,20.22
2016-05-17T11:34:19.917Z,20.2
2016-05-17T11:35:19.920Z,20.25
2016-05-17T11:36:19.907Z,20.33
2016-05-17T11:37:19.893Z,20.27
2016-05-17T11:38:19.880Z,20.3
2016-05-17T11:39:19.868Z,20.34
2016-05-17T11:40:20.151Z,20.31
2016-05-17T11:41:19.842Z,20.46
2016-05-17T11:42:19.829Z,20.41
2016-05-17T11:43:19.800Z,20.51
2016-05-17T11:44:19.631Z,20.53
2016-05-17T11:45:19.774Z,20.51
2016-05-17T11:46:19.761Z,20.56
2016-05-17T11:47:19.858Z,20.57
2016-05-17T11:48:20.142Z,20.61
2016-05-17T11:49:19.722Z,20.63
2016-05-17T11:50:19.569Z,20.66
2016-05-17T11:51:19.713Z,20.61
2016-05-17T11:52:19.683Z,20.79
2016-05-17T11:53:19.671Z,20.79
2016-05-17T11:54:19.361Z,20.85
2016-05-17T11:55:19.801Z,20.9
2016-05-17T11:56:19.632Z,20.83
2016-05-17T11:57:19.619Z,20.88
2016-05-17T11:58:19.606Z,20.94
2016-05-17T11:59:19.453Z,20.94
2016-05-17T12:00:19.581Z,21
2016-05-17T12:01:19.567Z,21.03
2016-05-17T12:02:19.554Z,21.05
2016-05-17T12:03:19.791Z,21.05
2016-05-17T12:04:19.529Z,20.9
2016-05-17T12:05:19.359Z,20.82
2016-05-17T12:06:19.519Z,20.81
2016-05-17T12:07:19.818Z,20.9
2016-05-17T12:08:19.492Z,20.83
2016-05-17T12:09:19.464Z,20.83
2016-05-17T12:10:19.451Z,20.78
2016-05-17T12:11:19.781Z,20.72
2016-05-17T12:12:19.425Z,20.73
2016-05-17T12:13:19.412Z,20.73
2016-05-17T12:14:19.400Z,20.75
2016-05-17T12:15:19.089Z,20.71
2016-05-17T12:16:19.217Z,20.6
2016-05-17T12:17:19.361Z,20.63
2016-05-17T12:18:19.191Z,20.73
2016-05-17T12:19:19.788Z,20.69
2016-05-17T12:20:19.322Z,20.66
2016-05-17T12:21:19.309Z,20.72
2016-05-17T12:22:19.374Z,20.76
2016-05-17T12:23:19.283Z,20.68
2016-05-17T12:24:19.269Z,20.75
2016-05-17T12:25:19.257Z,20.75
2016-05-17T12:26:19.244Z,20.72
2016-05-17T12:27:19.825Z,20.87
2016-05-17T12:28:19.062Z,20.93
2016-05-17T12:29:19.221Z,21.03
2016-05-17T12:30:19.208Z,21.24
2016-05-17T12:31:19.196Z,21.4
2016-05-17T12:32:19.166Z,21.51
2016-05-17T12:33:19.154Z,21.67
2016-05-17T12:34:19.141Z,21.71
2016-05-17T12:35:19.831Z,21.7
2016-05-17T12:36:19.115Z,21.86
2016-05-17T12:37:19.586Z,21.98
2016-05-17T12:38:19.089Z,22.08
2016-05-17T12:39:19.076Z,22.15
2016-05-17T12:40:19.063Z,21.94
2016-05-17T12:41:18.893Z,21.96
2016-05-17T12:42:19.037Z,21.77
2016-05-17T12:43:19.087Z,21.68
2016-05-17T12:44:19.027Z,21.66
2016-05-17T12:45:18.998Z,21.67
2016-05-17T12:46:19.001Z,21.82
2016-05-17T12:47:18.973Z,21.77
2016-05-17T12:48:18.975Z,21.96
2016-05-17T12:49:18.961Z,22.06
2016-05-17T12:50:18.949Z,22.06
2016-05-17T12:51:19.092Z,22.05
2016-05-17T12:52:18.767Z,22.17
2016-05-17T12:53:18.925Z,22.38
2016-05-17T12:54:18.897Z,22.39
2016-05-17T12:55:18.728Z,22.41
2016-05-17T12:56:18.716Z,22.31
2016-05-17T12:57:18.703Z,22.2